createdAt,value
2023-02-11T00:00:42.565Z,103536.41
2023-02-11T00:03:09.292Z,103536.41
2023-02-11T00:05:35.736Z,103527.78
2023-02-11T00:08:02.163Z,103522.59
2023-02-11T00:10:28.669Z,103516.56
2023-02-11T00:12:55.166Z,103512.25
2023-02-11T00:15:21.626Z,103517.44
2023-02-11T00:17:48.072Z,103526.03
2023-02-11T00:20:14.828Z,103513.06
2023-02-11T00:22:41.557Z,103520.84
2023-02-11T00:25:08.276Z,103516.56
2023-02-11T00:27:36.328Z,103524.31
2023-02-11T00:30:02.903Z,103527.75
2023-02-11T00:32:29.378Z,103520.00
2023-02-11T00:34:55.867Z,103526.88
2023-02-11T00:37:22.777Z,103526.88
2023-02-11T00:39:50.186Z,103520.00
2023-02-11T00:42:16.954Z,103525.16
2023-02-11T00:44:43.390Z,103526.03
2023-02-11T00:47:09.883Z,103526.03
2023-02-11T00:49:37.002Z,103526.03
2023-02-11T00:52:03.902Z,103525.16
2023-02-11T00:54:30.307Z,103529.47
2023-02-11T00:56:56.711Z,103524.31
2023-02-11T00:59:23.151Z,103519.09
2023-02-11T01:01:49.650Z,103513.94
2023-02-11T01:04:16.150Z,103511.31
2023-02-11T01:06:42.564Z,103505.28
2023-02-11T01:09:09.078Z,103494.91
2023-02-11T01:11:35.806Z,103488.84
2023-02-11T01:14:02.750Z,103498.31
2023-02-11T01:16:29.219Z,103497.44
2023-02-11T01:18:55.742Z,103497.38
2023-02-11T01:21:22.338Z,103485.31
2023-02-11T01:23:48.741Z,103469.75
2023-02-11T01:26:15.165Z,103466.28
2023-02-11T01:28:41.649Z,103474.03
2023-02-11T01:31:08.332Z,103477.47
2023-02-11T01:33:34.809Z,103476.59
2023-02-11T01:36:03.116Z,103497.28
2023-02-11T01:38:30.112Z,103505.94
2023-02-11T01:40:59.523Z,103510.25
2023-02-11T01:43:28.313Z,103511.09
2023-02-11T01:46:04.407Z,103510.22
2023-02-11T01:48:41.542Z,103505.94
2023-02-11T01:51:26.421Z,103503.34
2023-02-11T01:54:12.340Z,103495.56
2023-02-11T01:57:04.127Z,103499.00
2023-02-11T01:59:38.232Z,103512.78
2023-02-11T02:02:09.451Z,103519.66
2023-02-11T02:04:45.177Z,103518.81
2023-02-11T02:07:17.833Z,103520.53
2023-02-11T02:09:49.348Z,103520.53
2023-02-11T02:12:16.000Z,103514.50
2023-02-11T02:14:42.599Z,103512.78
2023-02-11T02:17:33.563Z,103498.09
2023-02-11T02:20:47.989Z,103503.28
2023-02-11T02:23:28.471Z,103500.69
2023-02-11T02:26:03.878Z,103512.78
2023-02-11T02:28:33.057Z,103495.47
2023-02-11T02:31:24.017Z,103501.50
2023-02-11T02:34:05.255Z,103499.72
2023-02-11T02:36:41.304Z,103499.69
2023-02-11T02:39:22.171Z,103488.50
2023-02-11T02:41:50.847Z,103479.88
2023-02-11T02:44:18.990Z,103483.31
2023-02-11T02:46:45.957Z,103485.00
2023-02-11T02:49:14.470Z,103483.28
2023-02-11T02:52:02.258Z,103484.16
2023-02-11T02:55:04.339Z,103481.56
2023-02-11T02:57:47.848Z,103491.03
2023-02-11T03:00:29.779Z,103490.22
2023-02-11T03:03:02.314Z,103486.75
2023-02-11T03:05:47.694Z,103484.19
2023-02-11T03:08:23.365Z,103472.13
2023-02-11T03:10:53.304Z,103470.38
2023-02-11T03:13:23.017Z,103472.13
2023-02-11T03:15:54.189Z,103460.91
2023-02-11T03:18:24.624Z,103461.75
2023-02-11T03:20:54.372Z,103449.69
2023-02-11T03:23:32.888Z,103456.53
2023-02-11T03:26:25.656Z,103446.19
2023-02-11T03:29:03.997Z,103442.75
2023-02-11T03:31:47.727Z,103448.78
2023-02-11T03:34:37.891Z,103447.06
2023-02-11T03:37:25.525Z,103448.75
2023-02-11T03:39:58.499Z,103446.16
2023-02-11T03:42:28.803Z,103442.72
2023-02-11T03:45:22.888Z,103436.66
2023-02-11T03:47:55.621Z,103434.06
2023-02-11T03:50:23.532Z,103430.59
2023-02-11T03:52:50.952Z,103428.84
2023-02-11T03:55:20.918Z,103436.56
2023-02-11T03:57:48.302Z,103441.75
2023-02-11T04:00:15.441Z,103449.50
2023-02-11T04:02:43.084Z,103454.63
2023-02-11T04:05:12.338Z,103459.81
2023-02-11T04:07:38.752Z,103459.84
2023-02-11T04:10:05.640Z,103459.00
2023-02-11T04:12:32.108Z,103460.75
2023-02-11T04:14:58.734Z,103464.22
2023-02-11T04:17:25.200Z,103445.25
2023-02-11T04:19:51.683Z,103462.50
2023-02-11T04:22:18.091Z,103455.63
2023-02-11T04:24:44.494Z,103457.38
2023-02-11T04:27:11.028Z,103465.13
2023-02-11T04:29:37.725Z,103466.84
2023-02-11T04:32:04.462Z,103472.91
2023-02-11T04:34:31.346Z,103475.50
2023-02-11T04:36:57.835Z,103474.63
2023-02-11T04:39:24.384Z,103468.63
2023-02-11T04:41:50.883Z,103465.19
2023-02-11T04:44:17.325Z,103468.66
2023-02-11T04:46:43.727Z,103474.69
2023-02-11T04:49:13.746Z,103469.56
2023-02-11T04:51:40.642Z,103473.00
2023-02-11T04:54:07.619Z,103467.81
2023-02-11T04:56:34.758Z,103465.25
2023-02-11T04:59:01.235Z,103467.84
2023-02-11T05:01:27.837Z,103469.59
2023-02-11T05:03:54.412Z,103462.69
2023-02-11T05:06:20.879Z,103467.84
2023-02-11T05:08:47.794Z,103467.88
2023-02-11T05:11:23.046Z,103467.88
2023-02-11T05:13:49.524Z,103470.47
2023-02-11T05:16:17.042Z,103468.75
2023-02-11T05:18:44.852Z,103461.00
2023-02-11T05:21:18.406Z,103464.47
2023-02-11T05:23:45.769Z,103473.09
2023-02-11T05:26:12.737Z,103469.63
2023-02-11T05:28:39.629Z,103467.91
2023-02-11T05:31:06.160Z,103477.41
2023-02-11T05:33:32.744Z,103467.06
2023-02-11T05:36:04.621Z,103471.38
2023-02-11T05:38:31.088Z,103464.50
2023-02-11T05:40:57.540Z,103461.94
2023-02-11T05:43:24.000Z,103460.19
2023-02-11T05:45:50.852Z,103457.63
2023-02-11T05:48:17.868Z,103460.22
2023-02-11T05:50:44.561Z,103462.81
2023-02-11T05:53:11.701Z,103465.44
2023-02-11T05:55:38.556Z,103474.91
2023-02-11T05:58:07.920Z,103465.41
2023-02-11T06:00:35.002Z,103471.47
2023-02-11T06:03:01.827Z,103466.31
2023-02-11T06:05:28.251Z,103467.16
2023-02-11T06:07:54.668Z,103474.94
2023-02-11T06:10:21.441Z,103477.50
2023-02-11T06:12:48.095Z,103481.84
2023-02-11T06:15:14.578Z,103481.00
2023-02-11T06:17:41.058Z,103491.34
2023-02-11T06:20:08.694Z,103476.69
2023-02-11T06:22:35.284Z,103483.63
2023-02-11T06:25:02.451Z,103485.38
2023-02-11T06:27:29.552Z,103480.19
2023-02-11T06:29:56.329Z,103472.44
2023-02-11T06:32:42.850Z,103478.47
2023-02-11T06:35:11.753Z,103479.38
2023-02-11T06:37:38.873Z,103472.47
2023-02-11T06:40:05.719Z,103475.91
2023-02-11T06:42:32.385Z,103477.63
2023-02-11T06:44:58.807Z,103475.94
2023-02-11T06:47:25.296Z,103463.00
2023-02-11T06:49:52.017Z,103469.91
2023-02-11T06:52:18.435Z,103466.47
2023-02-11T06:54:44.831Z,103467.34
2023-02-11T06:57:11.316Z,103470.78
2023-02-11T06:59:37.741Z,103479.44
2023-02-11T07:02:04.350Z,103476.84
2023-02-11T07:04:30.876Z,103481.19
2023-02-11T07:06:57.266Z,103486.38
2023-02-11T07:09:23.694Z,103488.97
2023-02-11T07:11:50.286Z,103487.25
2023-02-11T07:14:17.016Z,103488.97
2023-02-11T07:16:43.557Z,103497.63
2023-02-11T07:19:10.452Z,103492.44
2023-02-11T07:21:36.874Z,103493.31
2023-02-11T07:24:09.664Z,103504.53
2023-02-11T07:26:37.461Z,103501.97
2023-02-11T07:29:03.885Z,103509.75
2023-02-11T07:31:31.275Z,103514.94
2023-02-11T07:34:00.135Z,103512.34
2023-02-11T07:36:28.368Z,103514.97
2023-02-11T07:38:54.900Z,103514.09
2023-02-11T07:41:23.425Z,103516.72
2023-02-11T07:43:50.936Z,103527.09
2023-02-11T07:46:26.304Z,103527.94
2023-02-11T07:48:53.557Z,103527.97
2023-02-11T07:51:25.939Z,103527.09
2023-02-11T07:53:53.401Z,103518.50
2023-02-11T07:56:20.632Z,103519.34
2023-02-11T07:58:47.892Z,103514.19
2023-02-11T08:01:22.043Z,103510.72
2023-02-11T08:03:51.348Z,103511.63
2023-02-11T08:06:20.404Z,103526.28
2023-02-11T08:08:47.276Z,103521.13
2023-02-11T08:11:25.967Z,103515.97
2023-02-11T08:13:53.786Z,103522.88
2023-02-11T08:16:26.528Z,103520.31
2023-02-11T08:18:55.424Z,103518.56
2023-02-11T08:21:21.966Z,103526.34
2023-02-11T08:23:49.926Z,103528.09
2023-02-11T08:26:22.403Z,103519.47
2023-02-11T08:28:51.378Z,103525.50
2023-02-11T08:31:24.333Z,103526.38
2023-02-11T08:33:51.373Z,103522.06
2023-02-11T08:36:20.677Z,103530.69
2023-02-11T08:38:47.591Z,103534.13
2023-02-11T08:41:14.972Z,103541.94
2023-02-11T08:43:42.786Z,103545.38
2023-02-11T08:46:13.436Z,103542.81
2023-02-11T08:48:39.910Z,103541.09
2023-02-11T08:51:13.762Z,103535.06
2023-02-11T08:53:40.424Z,103541.13
2023-02-11T08:56:06.984Z,103539.41
2023-02-11T08:58:33.663Z,103547.19
2023-02-11T09:01:00.306Z,103554.13
2023-02-11T09:03:27.039Z,103553.25
2023-02-11T09:05:53.692Z,103550.69
2023-02-11T09:08:20.964Z,103559.34
2023-02-11T09:10:47.434Z,103558.50
2023-02-11T09:13:13.933Z,103568.03
2023-02-11T09:15:40.434Z,103573.22
2023-02-11T09:18:07.534Z,103562.88
2023-02-11T09:20:34.220Z,103569.78
2023-02-11T09:23:00.796Z,103575.84
2023-02-11T09:25:27.508Z,103576.72
2023-02-11T09:27:54.036Z,103570.66
2023-02-11T09:30:21.031Z,103575.88
2023-02-11T09:32:47.524Z,103580.22
2023-02-11T09:35:14.041Z,103578.50
2023-02-11T09:37:40.597Z,103581.09
2023-02-11T09:40:07.553Z,103584.53
2023-02-11T09:42:53.022Z,103587.16
2023-02-11T09:45:24.038Z,103595.78
2023-02-11T09:48:12.664Z,103586.31
2023-02-11T09:50:43.308Z,103591.50
2023-02-11T09:53:20.739Z,103594.09
2023-02-11T09:55:55.662Z,103600.16
2023-02-11T09:58:30.747Z,103590.63
2023-02-11T10:01:04.732Z,103596.69
2023-02-11T10:03:46.109Z,103601.88
2023-02-11T10:06:19.999Z,103606.22
2023-02-11T10:09:12.799Z,103609.69
2023-02-11T10:12:04.509Z,103614.88
2023-02-11T10:15:16.266Z,103614.91
2023-02-11T10:18:14.792Z,103621.78
2023-02-11T10:20:50.508Z,103627.84
2023-02-11T10:23:22.366Z,103627.00
2023-02-11T10:25:54.433Z,103625.25
2023-02-11T10:28:24.904Z,103633.94
2023-02-11T10:31:11.712Z,103636.53
2023-02-11T10:33:46.603Z,103633.06
2023-02-11T10:36:15.097Z,103639.09
2023-02-11T10:38:41.639Z,103637.38
2023-02-11T10:41:13.396Z,103639.09
2023-02-11T10:43:42.343Z,103647.75
2023-02-11T10:46:18.274Z,103642.56
2023-02-11T10:48:51.625Z,103646.03
2023-02-11T10:51:34.097Z,103641.72
2023-02-11T10:54:08.249Z,103646.91
2023-02-11T10:56:37.349Z,103641.69
2023-02-11T10:59:28.086Z,103646.88
2023-02-11T11:02:00.569Z,103644.28
2023-02-11T11:04:30.469Z,103646.88
2023-02-11T11:07:16.890Z,103642.53
2023-02-11T11:10:05.994Z,103647.72
2023-02-11T11:12:36.626Z,103656.34
2023-02-11T11:15:21.730Z,103654.53
2023-02-11T11:18:20.915Z,103664.09
2023-02-11T11:21:22.893Z,103662.31
2023-02-11T11:23:56.463Z,103660.53
2023-02-11T11:26:24.519Z,103675.28
2023-02-11T11:28:53.506Z,103672.69
2023-02-11T11:31:30.754Z,103677.03
2023-02-11T11:33:59.744Z,103676.13
2023-02-11T11:36:36.240Z,103675.22
2023-02-11T11:39:22.196Z,103683.81
2023-02-11T11:41:59.845Z,103682.06
2023-02-11T11:44:32.336Z,103684.69
2023-02-11T11:47:11.073Z,103676.88
2023-02-11T11:49:43.536Z,103682.97
2023-02-11T11:52:32.967Z,103672.56
2023-02-11T11:55:07.857Z,103661.28
2023-02-11T11:57:38.779Z,103656.09
2023-02-11T12:00:14.628Z,103656.13
2023-02-11T12:02:47.290Z,103658.69
2023-02-11T12:05:42.355Z,103656.09
2023-02-11T12:08:16.154Z,103661.28
2023-02-11T12:10:58.600Z,103649.06
2023-02-11T12:13:48.087Z,103648.19
2023-02-11T12:16:42.227Z,103641.22
2023-02-11T12:19:30.251Z,103648.16
2023-02-11T12:22:03.500Z,103653.31
2023-02-11T12:24:53.290Z,103649.81
2023-02-11T12:27:41.103Z,103656.69
2023-02-11T12:30:30.648Z,103643.59
2023-02-11T12:33:40.351Z,103636.59
2023-02-11T12:36:22.426Z,103640.91
2023-02-11T12:39:06.358Z,103644.38
2023-02-11T12:42:00.228Z,103646.81
2023-02-11T12:44:44.734Z,103650.19
2023-02-11T12:47:52.788Z,103651.88
2023-02-11T12:50:56.895Z,103645.75
2023-02-11T12:53:37.936Z,103637.13
2023-02-11T12:56:29.283Z,103647.53
2023-02-11T12:58:59.011Z,103648.34
2023-02-11T13:01:39.877Z,103638.88
2023-02-11T13:04:12.935Z,103639.81
2023-02-11T13:06:48.497Z,103631.97
2023-02-11T13:09:21.946Z,103631.94
2023-02-11T13:11:53.702Z,103642.28
2023-02-11T13:14:35.517Z,103638.75
2023-02-11T13:17:11.134Z,103653.47
2023-02-11T13:19:44.187Z,103644.78
2023-02-11T13:22:20.044Z,103638.69
2023-02-11T13:25:17.553Z,103636.91
2023-02-11T13:27:48.092Z,103638.56
2023-02-11T13:30:29.317Z,103633.31
2023-02-11T13:32:55.785Z,103625.59
2023-02-11T13:35:40.249Z,103622.97
2023-02-11T13:38:19.171Z,103619.44
2023-02-11T13:40:48.203Z,103627.25
2023-02-11T13:43:25.535Z,103613.34
2023-02-11T13:45:57.643Z,103631.66
2023-02-11T13:48:52.704Z,103622.06
2023-02-11T13:51:38.274Z,103623.81
2023-02-11T13:54:06.283Z,103626.47
2023-02-11T13:56:42.718Z,103623.00
2023-02-11T13:59:27.574Z,103619.56
2023-02-11T14:02:14.019Z,103625.72
2023-02-11T14:05:31.725Z,103630.97
2023-02-11T14:08:29.103Z,103636.22
2023-02-11T14:11:12.344Z,103636.28
2023-02-11T14:13:47.939Z,103636.31
2023-02-11T14:16:28.194Z,103631.97
2023-02-11T14:19:02.523Z,103637.19
2023-02-11T14:21:32.370Z,103634.59
2023-02-11T14:24:01.895Z,103632.88
2023-02-11T14:26:49.982Z,103635.47
2023-02-11T14:29:50.934Z,103631.97
2023-02-11T14:32:34.965Z,103635.44
2023-02-11T14:35:07.721Z,103633.66
2023-02-11T14:38:04.194Z,103635.38
2023-02-11T14:40:45.877Z,103637.94
2023-02-11T14:43:16.941Z,103643.13
2023-02-11T14:45:48.027Z,103647.47
2023-02-11T14:48:16.972Z,103643.13
2023-02-11T14:50:48.485Z,103641.41
2023-02-11T14:53:24.007Z,103640.53
2023-02-11T14:55:53.404Z,103646.66
2023-02-11T14:58:21.211Z,103641.44
2023-02-11T15:00:53.798Z,103641.44
2023-02-11T15:03:30.292Z,103651.03
2023-02-11T15:06:22.329Z,103648.44
2023-02-11T15:08:53.300Z,103651.91
2023-02-11T15:11:22.348Z,103649.34
2023-02-11T15:13:50.445Z,103645.03
2023-02-11T15:16:21.531Z,103653.72
2023-02-11T15:18:51.773Z,103656.34
2023-02-11T15:21:29.920Z,103661.59
2023-02-11T15:24:06.459Z,103669.47
2023-02-11T15:26:33.421Z,103672.97
2023-02-11T15:29:00.141Z,103672.13
2023-02-11T15:31:28.137Z,103679.97
2023-02-11T15:33:55.162Z,103673.06
2023-02-11T15:36:28.683Z,103663.59
2023-02-11T15:39:32.724Z,103681.84
2023-02-11T15:42:22.603Z,103678.41
2023-02-11T15:45:07.079Z,103674.97
2023-02-11T15:47:33.687Z,103679.34
2023-02-11T15:50:00.185Z,103681.09
2023-02-11T15:52:28.174Z,103681.97
2023-02-11T15:55:00.642Z,103682.88
2023-02-11T15:57:27.444Z,103688.97
2023-02-11T15:59:56.275Z,103688.09
2023-02-11T16:02:34.177Z,103689.00
2023-02-11T16:05:04.700Z,103691.59
2023-02-11T16:07:49.977Z,103692.50
2023-02-11T16:10:24.429Z,103691.69
2023-02-11T16:13:01.827Z,103690.81
2023-02-11T16:15:34.319Z,103689.09
2023-02-11T16:18:04.313Z,103697.78
2023-02-11T16:20:31.120Z,103692.59
2023-02-11T16:22:57.688Z,103688.31
2023-02-11T16:25:24.159Z,103699.56
2023-02-11T16:27:54.572Z,103701.31
2023-02-11T16:30:32.855Z,103704.81
2023-02-11T16:32:59.316Z,103700.47
2023-02-11T16:35:25.794Z,103704.81
2023-02-11T16:37:52.306Z,103708.31
2023-02-11T16:40:18.967Z,103709.16
2023-02-11T16:42:45.365Z,103706.59
2023-02-11T16:45:12.219Z,103705.72
2023-02-11T16:47:42.587Z,103713.50
2023-02-11T16:50:11.781Z,103717.00
2023-02-11T16:52:38.313Z,103720.47
2023-02-11T16:55:07.194Z,103717.88
2023-02-11T16:57:33.622Z,103719.59
2023-02-11T17:00:00.186Z,103725.69
2023-02-11T17:02:33.523Z,103733.50
2023-02-11T17:05:02.596Z,103736.94
2023-02-11T17:07:29.648Z,103748.22
2023-02-11T17:09:56.625Z,103753.41
2023-02-11T17:12:25.405Z,103749.97
2023-02-11T17:14:52.885Z,103749.97
2023-02-11T17:17:19.432Z,103753.44
2023-02-11T17:19:47.775Z,103756.06
2023-02-11T17:22:14.281Z,103747.38
2023-02-11T17:24:40.702Z,103757.78
2023-02-11T17:27:07.141Z,103760.41
2023-02-11T17:29:33.647Z,103761.25
2023-02-11T17:32:00.333Z,103759.53
2023-02-11T17:34:29.207Z,103753.47
2023-02-11T17:36:55.970Z,103757.78
2023-02-11T17:39:22.498Z,103765.56
2023-02-11T17:41:48.990Z,103768.19
2023-02-11T17:44:16.479Z,103776.88
2023-02-11T17:46:43.582Z,103770.81
2023-02-11T17:49:12.097Z,103775.13
2023-02-11T17:51:39.607Z,103780.31
2023-02-11T17:54:12.191Z,103775.13
2023-02-11T17:56:39.193Z,103785.50
2023-02-11T17:59:08.308Z,103781.19
2023-02-11T18:01:36.191Z,103778.59
2023-02-11T18:04:03.369Z,103778.56
2023-02-11T18:06:30.320Z,103781.19
2023-02-11T18:08:59.672Z,103786.41
2023-02-11T18:11:26.251Z,103782.06
2023-02-11T18:13:54.556Z,103786.38
2023-02-11T18:16:23.011Z,103786.38
2023-02-11T18:18:51.117Z,103787.22
2023-02-11T18:21:20.141Z,103797.63
2023-02-11T18:23:47.324Z,103789.81
2023-02-11T18:26:15.752Z,103796.78
2023-02-11T18:28:45.361Z,103802.84
2023-02-11T18:31:13.853Z,103798.50
2023-02-11T18:33:41.673Z,103801.09
2023-02-11T18:36:11.159Z,103801.97
2023-02-11T18:38:38.181Z,103809.75
2023-02-11T18:41:04.817Z,103812.34
2023-02-11T18:43:33.783Z,103816.69
2023-02-11T18:46:02.130Z,103823.59
2023-02-11T18:48:29.021Z,103821.00
2023-02-11T18:50:56.224Z,103818.41
2023-02-11T18:53:23.634Z,103821.88
2023-02-11T18:55:52.621Z,103816.66
2023-02-11T18:58:21.154Z,103819.25
2023-02-11T19:00:48.406Z,103828.78
2023-02-11T19:03:15.097Z,103815.81
2023-02-11T19:05:49.562Z,103821.00
2023-02-11T19:08:17.165Z,103827.88
2023-02-11T19:10:45.852Z,103830.44
2023-02-11T19:13:13.181Z,103825.25
2023-02-11T19:15:44.452Z,103828.75
2023-02-11T19:18:12.625Z,103831.31
2023-02-11T19:20:40.934Z,103828.72
2023-02-11T19:23:07.723Z,103835.66
2023-02-11T19:25:34.637Z,103833.06
2023-02-11T19:28:01.447Z,103839.13
2023-02-11T19:30:28.096Z,103847.78
2023-02-11T19:32:57.126Z,103845.22
2023-02-11T19:35:24.904Z,103847.78
2023-02-11T19:37:51.523Z,103853.84
2023-02-11T19:40:18.084Z,103854.69
2023-02-11T19:42:44.582Z,103858.16
2023-02-11T19:45:11.064Z,103853.84
2023-02-11T19:47:37.528Z,103855.56
2023-02-11T19:50:05.913Z,103852.94
2023-02-11T19:52:32.504Z,103854.69
2023-02-11T19:55:00.001Z,103852.97
2023-02-11T19:57:26.652Z,103859.91
2023-02-11T19:59:54.850Z,103859.88
2023-02-11T20:02:21.391Z,103863.34
2023-02-11T20:04:48.080Z,103876.34
2023-02-11T20:07:14.653Z,103878.94
2023-02-11T20:09:42.456Z,103872.00
2023-02-11T20:12:09.200Z,103879.81
2023-02-11T20:14:35.681Z,103882.38
2023-02-11T20:17:02.520Z,103879.81
2023-02-11T20:19:30.610Z,103877.22
2023-02-11T20:21:57.162Z,103879.78
2023-02-11T20:24:24.579Z,103883.25
2023-02-11T20:26:55.533Z,103880.63
2023-02-11T20:29:23.599Z,103884.97
2023-02-11T20:31:51.134Z,103884.13
2023-02-11T20:34:18.120Z,103893.63
2023-02-11T20:36:51.457Z,103899.69
2023-02-11T20:39:18.926Z,103901.41
2023-02-11T20:41:46.251Z,103898.78
2023-02-11T20:44:13.185Z,103904.00
2023-02-11T20:46:46.524Z,103897.94
2023-02-11T20:49:15.432Z,103899.66
2023-02-11T20:51:42.332Z,103896.19
2023-02-11T20:54:13.012Z,103900.53
2023-02-11T20:56:39.599Z,103905.72
2023-02-11T20:59:06.795Z,103915.22
2023-02-11T21:01:36.136Z,103920.44
2023-02-11T21:04:10.256Z,103922.16
2023-02-11T21:06:39.974Z,103919.56
2023-02-11T21:09:09.367Z,103919.56
2023-02-11T21:11:36.094Z,103920.44
2023-02-11T21:14:03.300Z,103917.81
2023-02-11T21:16:30.067Z,103923.03
2023-02-11T21:18:56.890Z,103921.28
2023-02-11T21:21:23.837Z,103932.53
2023-02-11T21:23:50.275Z,103929.06
2023-02-11T21:26:19.673Z,103926.47
2023-02-11T21:28:46.196Z,103936.84
2023-02-11T21:31:30.753Z,103933.41
2023-02-11T21:33:59.527Z,103946.38
2023-02-11T21:36:28.017Z,103944.66
2023-02-11T21:38:54.690Z,103945.50
2023-02-11T21:41:22.555Z,103948.94
2023-02-11T21:43:49.993Z,103947.25
2023-02-11T21:46:17.756Z,103954.16
2023-02-11T21:48:44.370Z,103957.59
2023-02-11T21:51:17.290Z,103954.13
2023-02-11T21:53:44.122Z,103951.53
2023-02-11T21:56:14.299Z,103956.72
2023-02-11T21:58:40.916Z,103954.16
2023-02-11T22:01:17.049Z,103958.44
2023-02-11T22:03:44.531Z,103955.88
2023-02-11T22:06:13.901Z,103965.38
2023-02-11T22:08:40.779Z,103961.03
2023-02-11T22:11:10.607Z,103964.50
2023-02-11T22:13:37.266Z,103967.97
2023-02-11T22:16:06.359Z,103965.38
2023-02-11T22:18:33.021Z,103971.44
2023-02-11T22:21:01.729Z,103978.34
2023-02-11T22:23:29.229Z,103976.63
2023-02-11T22:25:56.138Z,103975.75
2023-02-11T22:28:23.429Z,103980.97
2023-02-11T22:30:55.053Z,103967.97
2023-02-11T22:33:22.518Z,103975.75
2023-02-11T22:35:49.011Z,103972.31
2023-02-11T22:38:15.497Z,103973.16
2023-02-11T22:40:43.360Z,103973.16
2023-02-11T22:43:10.582Z,103974.91
2023-02-11T22:45:37.063Z,103973.16
2023-02-11T22:48:03.689Z,103973.16
2023-02-11T22:50:30.571Z,103987.84
2023-02-11T22:52:57.339Z,103985.25
2023-02-11T22:55:23.757Z,103980.06
2023-02-11T22:57:50.174Z,103984.34
2023-02-11T23:00:17.764Z,103985.22
2023-02-11T23:02:44.222Z,103976.56
2023-02-11T23:05:10.707Z,103973.94
2023-02-11T23:07:37.198Z,103980.88
2023-02-11T23:10:04.109Z,103986.94
2023-02-11T23:12:30.603Z,103986.06
2023-02-11T23:14:56.998Z,103982.59
2023-02-11T23:17:24.572Z,103983.47
2023-02-11T23:19:51.152Z,103985.16
2023-02-11T23:22:17.720Z,103984.34
2023-02-11T23:24:44.174Z,103985.16
2023-02-11T23:27:10.658Z,103989.50
2023-02-11T23:29:37.087Z,103983.44
2023-02-11T23:32:03.727Z,103986.88
2023-02-11T23:34:30.213Z,103989.47
2023-02-11T23:36:59.126Z,103988.59
2023-02-11T23:39:26.172Z,103992.94
2023-02-11T23:41:58.852Z,103987.75
2023-02-11T23:44:26.850Z,103992.97
2023-02-11T23:46:53.441Z,103992.97
2023-02-11T23:49:19.946Z,103990.38
2023-02-11T23:51:46.515Z,103987.75
2023-02-11T23:54:14.176Z,103985.16
2023-02-11T23:56:42.683Z,103992.03
2023-02-11T23:59:09.413Z,103979.94
